Time;durP1;ratioP1;P1;durP2;ratioP2;P2;SDS_P1;SDS_P2;PMS_P1;PMS_P2;Temp;Humidity;BMP_temperature;BMP_pressure;BME280_temperature;BME280_humidity;BME280_pressure;Samples;Min_cycle;Max_cycle;Signal;HPM_P1;HPM_P2
2022/04/11 00:01:46;;;;;;;;;;;23.70;44.90;;;;;;1602789;74;668;-61
2022/04/11 00:03:48;;;;;;;;;;;23.70;44.90;;;;;;1602636;74;765;-60
2022/04/11 00:05:50;;;;;;;;;;;23.70;44.80;;;;;;1601626;73;1162;-62
2022/04/11 00:07:52;;;;;;;;;;;23.70;44.90;;;;;;1601280;74;691;-62
2022/04/11 00:09:53;;;;;;;;;;;23.70;44.90;;;;;;1598303;73;732;-60
2022/04/11 00:11:56;;;;;;;;;;;23.70;45.00;;;;;;1592062;74;785;-60
2022/04/11 00:13:58;;;;;;;;;;;23.70;44.90;;;;;;1602529;74;772;-60
2022/04/11 00:16:00;;;;;;;;;;;23.70;44.90;;;;;;1602612;74;1136;-63
2022/04/11 00:18:02;;;;;;;;;;;23.70;44.80;;;;;;1601983;73;1930;-63
2022/04/11 00:20:04;;;;;;;;;;;23.70;44.80;;;;;;1602679;74;725;-62
2022/04/11 00:22:06;;;;;;;;;;;23.70;44.80;;;;;;1602693;74;828;-63
2022/04/11 00:24:08;;;;;;;;;;;23.70;44.90;;;;;;1602752;74;742;-63
2022/04/11 00:26:10;;;;;;;;;;;23.70;44.80;;;;;;1601576;74;1156;-65
2022/04/11 00:28:12;;;;;;;;;;;23.70;45.00;;;;;;1602762;74;713;-64
2022/04/11 00:30:13;;;;;;;;;;;23.70;44.90;;;;;;1602802;74;772;-62
2022/04/11 00:32:15;;;;;;;;;;;23.60;44.80;;;;;;1601737;73;692;-63
2022/04/11 00:34:17;;;;;;;;;;;23.70;45.00;;;;;;1602813;74;553;-63
2022/04/11 00:36:19;;;;;;;;;;;23.70;45.00;;;;;;1602451;74;1171;-64
2022/04/11 00:38:21;;;;;;;;;;;23.60;44.90;;;;;;1591151;72;3077;-62
2022/04/11 00:40:23;;;;;;;;;;;23.60;44.90;;;;;;1619527;73;762;-62
2022/04/11 00:42:26;;;;;;;;;;;23.60;44.90;;;;;;1620045;73;751;-62
2022/04/11 00:44:28;;;;;;;;;;;23.60;44.90;;;;;;1625571;72;688;-62
2022/04/11 00:46:30;;;;;;;;;;;23.60;44.90;;;;;;1625532;73;667;-65
2022/04/11 00:48:32;;;;;;;;;;;23.70;45.00;;;;;;1614542;72;1230;-64
2022/04/11 00:50:34;;;;;;;;;;;23.70;45.00;;;;;;1599212;74;780;-62
2022/04/11 00:52:37;;;;;;;;;;;23.70;45.00;;;;;;1599132;74;768;-61
2022/04/11 00:54:39;;;;;;;;;;;23.70;45.00;;;;;;1597740;74;1801;-62
2022/04/11 00:56:41;;;;;;;;;;;23.60;44.90;;;;;;1592367;73;733;-61
2022/04/11 00:58:43;;;;;;;;;;;23.70;45.00;;;;;;1592155;75;1941;-62
2022/04/11 01:00:45;;;;;;;;;;;23.70;45.00;;;;;;1592515;75;779;-61
2022/04/11 01:02:47;;;;;;;;;;;23.60;44.90;;;;;;1592227;75;625;-61
2022/04/11 01:04:48;;;;;;;;;;;23.70;44.90;;;;;;1595162;74;762;-61
2022/04/11 01:06:55;;;;;;;;;;;23.60;44.80;;;;;;1599151;74;564;-64
2022/04/11 01:08:57;;;;;;;;;;;23.70;45.00;;;;;;1593187;74;1116;-61
2022/04/11 01:10:59;;;;;;;;;;;23.60;44.80;;;;;;1592150;75;631;-61
2022/04/11 01:13:01;;;;;;;;;;;23.60;44.80;;;;;;1587565;73;752;-63
2022/04/11 01:15:04;;;;;;;;;;;23.70;45.00;;;;;;1571388;76;763;-61
2022/04/11 01:17:05;;;;;;;;;;;23.60;44.90;;;;;;1571388;76;1910;-63
2022/04/11 01:19:07;;;;;;;;;;;23.60;44.80;;;;;;1571451;76;1111;-61
2022/04/11 01:21:09;;;;;;;;;;;23.60;44.90;;;;;;1571463;76;772;-61
2022/04/11 01:23:11;;;;;;;;;;;23.70;45.00;;;;;;1594653;74;772;-62
2022/04/11 01:25:14;;;;;;;;;;;23.70;45.00;;;;;;1598629;74;825;-61
2022/04/11 01:27:16;;;;;;;;;;;23.70;45.00;;;;;;1599027;74;800;-61
2022/04/11 01:29:18;;;;;;;;;;;23.70;45.00;;;;;;1599013;73;1148;-60
2022/04/11 01:31:20;;;;;;;;;;;23.60;44.90;;;;;;1598279;74;765;-61
2022/04/11 01:33:22;;;;;;;;;;;23.60;44.90;;;;;;1598531;74;751;-62
2022/04/11 01:35:25;;;;;;;;;;;23.60;44.90;;;;;;1598594;74;636;-63
2022/04/11 01:37:27;;;;;;;;;;;23.70;45.10;;;;;;1598712;74;1895;-64
2022/04/11 01:39:29;;;;;;;;;;;23.60;45.00;;;;;;1598669;73;1154;-62
2022/04/11 01:41:31;;;;;;;;;;;23.60;45.00;;;;;;1599193;74;762;-64
2022/04/11 01:43:32;;;;;;;;;;;23.70;45.10;;;;;;1599045;74;786;-62
2022/04/11 01:45:34;;;;;;;;;;;23.60;45.00;;;;;;1598958;74;810;-62
2022/04/11 01:47:36;;;;;;;;;;;23.60;45.00;;;;;;1576544;74;755;-62
2022/04/11 01:49:38;;;;;;;;;;;23.60;45.10;;;;;;1590288;73;1119;-62
2022/04/11 01:51:40;;;;;;;;;;;23.50;45.20;;;;;;1589284;73;745;-62
2022/04/11 01:53:42;;;;;;;;;;;23.60;45.10;;;;;;1604843;74;680;-63
2022/04/11 01:55:44;;;;;;;;;;;23.60;45.10;;;;;;1598331;74;751;-62
2022/04/11 01:57:46;;;;;;;;;;;23.60;45.20;;;;;;1599103;74;1909;-62
2022/04/11 01:59:47;;;;;;;;;;;23.50;45.20;;;;;;1599145;73;806;-61
2022/04/11 02:01:49;;;;;;;;;;;23.50;45.20;;;;;;1599032;74;587;-61
2022/04/11 02:03:51;;;;;;;;;;;23.50;45.20;;;;;;1598799;74;715;-61
2022/04/11 02:05:53;;;;;;;;;;;23.50;45.20;;;;;;1599161;74;767;-62
2022/04/11 02:07:56;;;;;;;;;;;23.60;45.10;;;;;;1580178;74;1128;-62
2022/04/11 02:09:58;;;;;;;;;;;23.50;45.10;;;;;;1571573;76;719;-61
2022/04/11 02:12:00;;;;;;;;;;;23.60;45.10;;;;;;1583247;74;741;-62
2022/04/11 02:14:01;;;;;;;;;;;23.60;45.10;;;;;;1599193;74;673;-62
2022/04/11 02:16:04;;;;;;;;;;;23.60;45.20;;;;;;1599198;74;788;-63
2022/04/11 02:18:06;;;;;;;;;;;23.50;45.10;;;;;;1592590;74;1917;-62
2022/04/11 02:20:08;;;;;;;;;;;23.50;45.10;;;;;;1596382;74;787;-62
2022/04/11 02:22:10;;;;;;;;;;;23.60;45.00;;;;;;1599054;74;644;-62
2022/04/11 02:24:12;;;;;;;;;;;23.60;45.00;;;;;;1599201;73;790;-64
2022/04/11 02:26:14;;;;;;;;;;;23.60;44.90;;;;;;1598928;74;728;-61
2022/04/11 02:28:15;;;;;;;;;;;23.60;44.90;;;;;;1599155;73;1138;-62
2022/04/11 02:30:18;;;;;;;;;;;23.60;44.90;;;;;;1599229;74;713;-62
2022/04/11 02:32:21;;;;;;;;;;;23.60;44.90;;;;;;1599080;74;705;-61
2022/04/11 02:34:25;;;;;;;;;;;23.70;44.90;;;;;;1597462;74;601;-63
2022/04/11 02:36:26;;;;;;;;;;;23.70;44.90;;;;;;1571292;76;1506;-62
2022/04/11 02:38:28;;;;;;;;;;;23.70;44.90;;;;;;1571377;74;1904;-61
2022/04/11 02:40:30;;;;;;;;;;;23.70;44.90;;;;;;1571553;76;809;-61
2022/04/11 02:42:32;;;;;;;;;;;23.70;44.80;;;;;;1571552;75;739;-63
2022/04/11 02:44:34;;;;;;;;;;;23.70;44.90;;;;;;1601270;73;791;-62
2022/04/11 02:46:36;;;;;;;;;;;23.70;45.00;;;;;;1586000;73;701;-62
2022/04/11 02:48:38;;;;;;;;;;;23.70;44.90;;;;;;1597986;74;1141;-61
2022/04/11 02:50:40;;;;;;;;;;;23.80;44.80;;;;;;1598104;74;829;-61
2022/04/11 02:52:42;;;;;;;;;;;23.80;44.70;;;;;;1598001;74;639;-61
2022/04/11 02:54:44;;;;;;;;;;;23.80;44.70;;;;;;1598406;74;772;-61
2022/04/11 02:56:46;;;;;;;;;;;23.80;44.80;;;;;;1599185;74;725;-65
2022/04/11 02:58:48;;;;;;;;;;;23.70;44.80;;;;;;1595470;73;1939;-61
2022/04/11 03:00:49;;;;;;;;;;;23.70;44.90;;;;;;1592206;75;640;-60
2022/04/11 03:02:52;;;;;;;;;;;23.70;44.90;;;;;;1592237;75;720;-61
2022/04/11 03:04:54;;;;;;;;;;;23.70;45.00;;;;;;1596338;74;748;-61
2022/04/11 03:06:56;;;;;;;;;;;23.60;45.00;;;;;;1599106;74;766;-61
2022/04/11 03:08:58;;;;;;;;;;;23.70;45.10;;;;;;1599163;73;1193;-61
2022/04/11 03:11:00;;;;;;;;;;;23.60;45.00;;;;;;1599144;74;725;-61
2022/04/11 03:13:01;;;;;;;;;;;23.60;45.10;;;;;;1598947;74;841;-60
2022/04/11 03:15:04;;;;;;;;;;;23.50;45.20;;;;;;1598187;74;712;-61
2022/04/11 03:17:06;;;;;;;;;;;23.50;45.20;;;;;;1599194;74;957;-64
2022/04/11 03:19:08;;;;;;;;;;;23.50;45.30;;;;;;1599041;73;1944;-62
2022/04/11 03:21:09;;;;;;;;;;;23.60;45.40;;;;;;1599187;74;681;-62
2022/04/11 03:23:11;;;;;;;;;;;23.60;45.20;;;;;;1598906;74;799;-64
2022/04/11 03:25:13;;;;;;;;;;;23.60;45.20;;;;;;1589475;74;726;-63
2022/04/11 03:27:15;;;;;;;;;;;23.70;45.30;;;;;;1571577;76;716;-62
2022/04/11 03:29:17;;;;;;;;;;;23.60;45.10;;;;;;1571636;74;1146;-61
2022/04/11 03:31:19;;;;;;;;;;;23.60;45.10;;;;;;1571499;76;874;-62
2022/04/11 03:33:21;;;;;;;;;;;23.60;45.00;;;;;;1581130;74;691;-61
2022/04/11 03:35:23;;;;;;;;;;;23.70;45.00;;;;;;1598992;74;698;-61
2022/04/11 03:37:26;;;;;;;;;;;23.60;45.00;;;;;;1599059;74;672;-62
2022/04/11 03:39:28;;;;;;;;;;;23.70;45.20;;;;;;1599055;73;1941;-61
2022/04/11 03:41:30;;;;;;;;;;;23.60;45.20;;;;;;1593878;74;793;-67
2022/04/11 03:43:32;;;;;;;;;;;23.60;45.20;;;;;;1595392;74;762;-67
2022/04/11 03:45:34;;;;;;;;;;;23.70;45.20;;;;;;1597018;74;790;-70
2022/04/11 03:47:35;;;;;;;;;;;23.70;45.10;;;;;;1596722;74;774;-67
2022/04/11 03:49:37;;;;;;;;;;;23.90;44.90;;;;;;1598393;74;1186;-67
2022/04/11 03:51:39;;;;;;;;;;;23.80;44.60;;;;;;1593055;74;996;-68
2022/04/11 03:53:41;;;;;;;;;;;23.90;44.70;;;;;;1598167;74;713;-66
2022/04/11 03:55:43;;;;;;;;;;;23.90;44.50;;;;;;1596282;74;776;-67
2022/04/11 03:57:48;;;;;;;;;;;23.90;44.60;;;;;;1586288;74;665;-67
2022/04/11 03:59:50;;;;;;;;;;;23.90;44.60;;;;;;1596742;74;1913;-68
2022/04/11 04:01:51;;;;;;;;;;;23.80;44.50;;;;;;1596822;74;713;-67
2022/04/11 04:03:53;;;;;;;;;;;23.80;44.50;;;;;;1597005;74;598;-67
2022/04/11 04:05:55;;;;;;;;;;;23.90;44.60;;;;;;1598864;74;790;-67
2022/04/11 04:07:57;;;;;;;;;;;23.80;44.50;;;;;;1598737;73;1101;-66
2022/04/11 04:09:59;;;;;;;;;;;23.80;44.60;;;;;;1598946;74;756;-66
2022/04/11 04:12:01;;;;;;;;;;;23.80;44.50;;;;;;1598600;74;626;-67
2022/04/11 04:14:03;;;;;;;;;;;23.80;44.50;;;;;;1595115;74;774;-69
2022/04/11 04:16:05;;;;;;;;;;;23.90;44.70;;;;;;1592011;75;730;-65
2022/04/11 04:18:07;;;;;;;;;;;23.80;44.60;;;;;;1591757;75;1947;-70
2022/04/11 04:20:10;;;;;;;;;;;23.90;44.60;;;;;;1591892;75;732;-67
2022/04/11 04:22:12;;;;;;;;;;;23.90;44.50;;;;;;1595286;74;641;-67
2022/04/11 04:24:14;;;;;;;;;;;23.90;44.50;;;;;;1598805;74;712;-69
2022/04/11 04:26:15;;;;;;;;;;;24.00;44.50;;;;;;1598576;74;787;-69
2022/04/11 04:28:17;;;;;;;;;;;23.90;44.50;;;;;;1598928;73;1122;-68
2022/04/11 04:30:19;;;;;;;;;;;23.90;44.40;;;;;;1598881;74;809;-66
2022/04/11 04:32:22;;;;;;;;;;;23.90;44.40;;;;;;1599018;74;796;-68
2022/04/11 04:34:30;;;;;;;;;;;24.00;44.40;;;;;;1597964;74;709;-67
2022/04/11 04:36:28;;;;;;;;;;;23.90;44.40;;;;;;1568841;76;1708;-66
2022/04/11 04:38:29;;;;;;;;;;;23.90;44.40;;;;;;1591871;74;1961;-66
2022/04/11 04:40:31;;;;;;;;;;;23.90;44.40;;;;;;1597455;74;758;-67
2022/04/11 04:42:33;;;;;;;;;;;23.90;44.40;;;;;;1584907;74;694;-68
2022/04/11 04:44:37;;;;;;;;;;;24.00;44.30;;;;;;1598642;74;713;-68
2022/04/11 04:46:38;;;;;;;;;;;23.90;44.20;;;;;;1589127;74;1726;-70
2022/04/11 04:48:40;;;;;;;;;;;23.90;44.30;;;;;;1590866;74;1171;-69
2022/04/11 04:50:42;;;;;;;;;;;23.90;44.30;;;;;;1598299;74;714;-68
2022/04/11 04:52:44;;;;;;;;;;;23.90;44.30;;;;;;1596474;74;716;-67
2022/04/11 04:54:46;;;;;;;;;;;23.90;44.20;;;;;;1597485;74;619;-70
2022/04/11 04:56:49;;;;;;;;;;;23.90;44.20;;;;;;1598843;74;709;-69
2022/04/11 04:58:51;;;;;;;;;;;23.90;44.20;;;;;;1594744;73;1941;-69
2022/04/11 05:00:53;;;;;;;;;;;23.90;44.20;;;;;;1582632;74;790;-68
2022/04/11 05:02:55;;;;;;;;;;;23.90;44.20;;;;;;1571193;76;741;-65
2022/04/11 05:04:59;;;;;;;;;;;23.90;44.10;;;;;;1579623;74;744;-66
2022/04/11 05:07:00;;;;;;;;;;;23.90;44.20;;;;;;1597460;74;1905;-66
2022/04/11 05:09:02;;;;;;;;;;;23.90;44.20;;;;;;1593449;74;1147;-67
2022/04/11 05:11:04;;;;;;;;;;;23.90;44.30;;;;;;1590879;74;794;-67
2022/04/11 05:13:06;;;;;;;;;;;23.90;44.30;;;;;;1597484;74;816;-70
2022/04/11 05:15:08;;;;;;;;;;;23.80;44.20;;;;;;1587818;74;711;-66
2022/04/11 05:17:10;;;;;;;;;;;23.80;44.30;;;;;;1591615;74;711;-65
2022/04/11 05:19:12;;;;;;;;;;;23.80;44.30;;;;;;1597910;73;1918;-66
2022/04/11 05:21:14;;;;;;;;;;;23.90;44.40;;;;;;1597867;74;742;-69
2022/04/11 05:23:17;;;;;;;;;;;23.80;44.20;;;;;;1596387;74;785;-68
2022/04/11 05:25:20;;;;;;;;;;;23.80;44.20;;;;;;1596149;74;755;-68
2022/04/11 05:27:22;;;;;;;;;;;23.90;44.20;;;;;;1595336;74;679;-68
2022/04/11 05:29:24;;;;;;;;;;;23.90;44.20;;;;;;1587561;74;1140;-66
2022/04/11 05:31:26;;;;;;;;;;;23.90;44.20;;;;;;1571075;74;596;-68
2022/04/11 05:33:28;;;;;;;;;;;23.90;44.20;;;;;;1571112;76;770;-68
2022/04/11 05:35:30;;;;;;;;;;;24.00;44.20;;;;;;1570995;76;794;-66
2022/04/11 05:37:31;;;;;;;;;;;23.90;44.20;;;;;;1597586;74;745;-66
2022/04/11 05:39:33;;;;;;;;;;;23.90;44.20;;;;;;1593893;74;1934;-66
2022/04/11 05:41:35;;;;;;;;;;;23.90;44.20;;;;;;1598159;74;1183;-68
2022/04/11 05:43:37;;;;;;;;;;;23.90;44.20;;;;;;1588782;74;765;-68
2022/04/11 05:45:39;;;;;;;;;;;23.90;44.20;;;;;;1597044;74;721;-68
2022/04/11 05:47:41;;;;;;;;;;;23.90;44.30;;;;;;1596103;74;738;-68
2022/04/11 05:49:43;;;;;;;;;;;23.80;44.30;;;;;;1583945;74;1056;-65
2022/04/11 05:51:45;;;;;;;;;;;23.80;44.20;;;;;;1598970;74;804;-69
2022/04/11 05:53:47;;;;;;;;;;;23.80;44.30;;;;;;1598897;74;714;-68
2022/04/11 05:55:49;;;;;;;;;;;23.70;44.40;;;;;;1598531;74;738;-67
2022/04/11 05:57:51;;;;;;;;;;;23.70;44.40;;;;;;1597702;74;1135;-67
2022/04/11 05:59:52;;;;;;;;;;;23.80;44.40;;;;;;1571342;76;1938;-67
2022/04/11 06:01:54;;;;;;;;;;;23.90;44.40;;;;;;1582464;74;803;-69
2022/04/11 06:03:56;;;;;;;;;;;23.90;44.20;;;;;;1598319;74;720;-67
2022/04/11 06:05:58;;;;;;;;;;;23.90;44.20;;;;;;1598076;74;698;-68
2022/04/11 06:08:00;;;;;;;;;;;24.00;44.20;;;;;;1598364;73;1146;-69
2022/04/11 06:10:02;;;;;;;;;;;23.90;44.20;;;;;;1598359;74;779;-67
2022/04/11 06:12:04;;;;;;;;;;;23.90;44.30;;;;;;1598146;74;821;-71
2022/04/11 06:14:06;;;;;;;;;;;23.80;44.20;;;;;;1596980;74;793;-71
2022/04/11 06:16:08;;;;;;;;;;;23.80;44.30;;;;;;1598881;73;821;-68
2022/04/11 06:18:10;;;;;;;;;;;23.70;44.40;;;;;;1597547;74;1163;-67
2022/04/11 06:20:12;;;;;;;;;;;23.70;44.50;;;;;;1597562;74;1941;-66
2022/04/11 06:22:14;;;;;;;;;;;23.80;44.50;;;;;;1597797;74;728;-65
2022/04/11 06:24:16;;;;;;;;;;;23.80;44.80;;;;;;1596507;74;738;-64
2022/04/11 06:26:18;;;;;;;;;;;23.70;44.70;;;;;;1597694;74;797;-64
2022/04/11 06:28:20;;;;;;;;;;;23.80;44.50;;;;;;1598354;74;1256;-65
2022/04/11 06:30:22;;;;;;;;;;;23.80;44.50;;;;;;1598020;74;736;-65
2022/04/11 06:32:26;;;;;;;;;;;23.70;44.60;;;;;;1598299;74;737;-64
2022/04/11 06:34:28;;;;;;;;;;;23.70;44.60;;;;;;1594473;74;1795;-65
2022/04/11 06:36:29;;;;;;;;;;;23.70;44.50;;;;;;1598119;74;806;-65
2022/04/11 06:38:31;;;;;;;;;;;23.70;44.60;;;;;;1588496;73;2040;-65
2022/04/11 06:40:33;;;;;;;;;;;23.70;44.70;;;;;;1564118;76;1943;-65
2022/04/11 06:42:35;;;;;;;;;;;23.70;44.60;;;;;;1563899;76;701;-67
2022/04/11 06:44:38;;;;;;;;;;;23.60;44.40;;;;;;1564037;76;782;-64
2022/04/11 06:46:40;;;;;;;;;;;23.60;44.40;;;;;;1563209;76;658;-65
2022/04/11 06:48:42;;;;;;;;;;;23.70;44.60;;;;;;1560259;75;1219;-65
2022/04/11 06:50:44;;;;;;;;;;;23.60;44.50;;;;;;1558463;75;851;-65
2022/04/11 06:52:46;;;;;;;;;;;23.60;44.40;;;;;;1554332;75;720;-69
2022/04/11 06:54:48;;;;;;;;;;;23.70;44.60;;;;;;1552544;75;711;-65
2022/04/11 06:56:50;;;;;;;;;;;23.70;44.40;;;;;;1554373;75;798;-63
2022/04/11 06:58:52;;;;;;;;;;;23.70;44.30;;;;;;1554924;75;1145;-66
2022/04/11 07:00:54;;;;;;;;;;;23.70;44.20;;;;;;1557278;75;1928;-67
2022/04/11 07:02:56;;;;;;;;;;;23.70;44.20;;;;;;1568424;75;751;-66
2022/04/11 07:04:58;;;;;;;;;;;23.70;44.20;;;;;;1553791;75;637;-65
2022/04/11 07:07:00;;;;;;;;;;;23.60;44.00;;;;;;1555233;76;834;-66
2022/04/11 07:09:01;;;;;;;;;;;23.50;44.20;;;;;;1555100;76;1145;-66
2022/04/11 07:11:04;;;;;;;;;;;23.50;44.30;;;;;;1555223;76;672;-66
2022/04/11 07:13:07;;;;;;;;;;;23.50;44.60;;;;;;1554356;76;722;-66
2022/04/11 07:15:09;;;;;;;;;;;23.50;44.40;;;;;;1554982;76;789;-66
2022/04/11 07:17:11;;;;;;;;;;;23.40;44.50;;;;;;1554963;76;719;-67
2022/04/11 07:19:13;;;;;;;;;;;23.30;44.60;;;;;;1555136;76;1951;-67
2022/04/11 07:21:15;;;;;;;;;;;23.40;44.50;;;;;;1555115;76;719;-69
2022/04/11 07:23:17;;;;;;;;;;;23.40;44.60;;;;;;1553655;76;751;-65
2022/04/11 07:25:18;;;;;;;;;;;23.30;44.90;;;;;;1554395;76;694;-64
2022/04/11 07:27:20;;;;;;;;;;;23.60;44.40;;;;;;1555151;76;795;-70
2022/04/11 07:29:22;;;;;;;;;;;23.70;43.60;;;;;;1553337;75;1153;-68
2022/04/11 07:31:24;;;;;;;;;;;23.70;42.90;;;;;;1558665;75;763;-69
2022/04/11 07:33:26;;;;;;;;;;;23.70;42.90;;;;;;1551121;76;773;-69
2022/04/11 07:35:28;;;;;;;;;;;23.80;42.70;;;;;;1548918;75;810;-69
2022/04/11 07:37:32;;;;;;;;;;;23.80;42.50;;;;;;1558753;75;679;-69
2022/04/11 07:39:33;;;;;;;;;;;23.80;42.30;;;;;;1558430;75;1938;-68
2022/04/11 07:41:35;;;;;;;;;;;23.90;42.10;;;;;;1550450;75;749;-70
2022/04/11 07:43:37;;;;;;;;;;;23.90;41.90;;;;;;1554383;75;725;-69
2022/04/11 07:45:39;;;;;;;;;;;23.90;41.80;;;;;;1554894;75;783;-69
2022/04/11 07:47:41;;;;;;;;;;;24.00;41.70;;;;;;1551575;75;709;-70
2022/04/11 07:49:42;;;;;;;;;;;24.00;41.30;;;;;;1548451;76;1194;-68
2022/04/11 07:51:44;;;;;;;;;;;24.00;41.30;;;;;;1491917;78;811;-69
2022/04/11 07:53:46;;;;;;;;;;;24.00;41.10;;;;;;1501949;78;778;-69
2022/04/11 07:55:48;;;;;;;;;;;24.00;40.70;;;;;;1508899;78;731;-69
2022/04/11 07:57:50;;;;;;;;;;;24.00;40.70;;;;;;1499471;77;752;-69
2022/04/11 07:59:52;;;;;;;;;;;24.00;40.40;;;;;;1566704;75;1948;-68
2022/04/11 08:01:54;;;;;;;;;;;24.00;40.20;;;;;;1552687;75;773;-67
2022/04/11 08:03:56;;;;;;;;;;;24.00;40.00;;;;;;1544336;75;783;-69
2022/04/11 08:05:57;;;;;;;;;;;24.00;40.00;;;;;;1537466;75;683;-68
2022/04/11 08:07:59;;;;;;;;;;;23.90;39.70;;;;;;1501322;78;814;-68
2022/04/11 08:10:02;;;;;;;;;;;23.90;39.70;;;;;;1501571;78;1231;-68
2022/04/11 08:12:04;;;;;;;;;;;24.00;39.80;;;;;;1509137;78;719;-69
2022/04/11 08:14:06;;;;;;;;;;;24.00;39.20;;;;;;1499937;78;640;-68
2022/04/11 08:16:08;;;;;;;;;;;24.00;39.10;;;;;;1501249;78;647;-70
2022/04/11 08:18:10;;;;;;;;;;;24.00;38.90;;;;;;1509210;78;1156;-67
2022/04/11 08:20:11;;;;;;;;;;;24.00;38.90;;;;;;1501234;78;1922;-68
2022/04/11 08:22:13;;;;;;;;;;;24.00;39.00;;;;;;1503374;78;702;-67
2022/04/11 08:24:15;;;;;;;;;;;24.10;38.90;;;;;;1506083;78;674;-67
2022/04/11 08:26:17;;;;;;;;;;;24.10;38.30;;;;;;1511565;78;795;-67
2022/04/11 08:28:22;;;;;;;;;;;24.10;38.00;;;;;;1514169;78;1156;-68
2022/04/11 08:30:24;;;;;;;;;;;24.20;37.90;;;;;;1514201;78;902;-66
2022/04/11 08:32:26;;;;;;;;;;;24.00;37.40;;;;;;1512522;78;744;-67
2022/04/11 08:34:27;;;;;;;;;;;24.10;37.50;;;;;;1511218;78;710;-68
2022/04/11 08:36:29;;;;;;;;;;;24.10;37.20;;;;;;1514038;78;770;-68
2022/04/11 08:38:31;;;;;;;;;;;24.00;36.50;;;;;;1512600;77;1140;-68
2022/04/11 08:40:33;;;;;;;;;;;24.10;36.80;;;;;;1527676;77;1941;-68
2022/04/11 08:42:35;;;;;;;;;;;24.10;36.70;;;;;;1534404;77;748;-69
2022/04/11 08:44:37;;;;;;;;;;;24.00;35.70;;;;;;1535018;77;757;-68
2022/04/11 08:46:39;;;;;;;;;;;24.00;36.00;;;;;;1542324;76;762;-67
2022/04/11 08:48:41;;;;;;;;;;;24.00;35.20;;;;;;1528476;76;1173;-67
2022/04/11 08:50:43;;;;;;;;;;;23.90;35.80;;;;;;1508100;79;786;-67
2022/04/11 08:52:45;;;;;;;;;;;24.00;35.80;;;;;;1548464;76;751;-68
2022/04/11 08:54:47;;;;;;;;;;;24.00;35.70;;;;;;1546312;76;749;-69
2022/04/11 08:56:49;;;;;;;;;;;24.00;35.80;;;;;;1528222;76;771;-68
2022/04/11 08:58:51;;;;;;;;;;;23.90;35.50;;;;;;1536795;76;1112;-68
2022/04/11 09:00:53;;;;;;;;;;;23.90;35.70;;;;;;1511925;77;1941;-66
2022/04/11 09:02:55;;;;;;;;;;;23.90;35.80;;;;;;1528209;77;783;-67
2022/04/11 09:04:57;;;;;;;;;;;23.90;35.60;;;;;;1522865;77;710;-70
2022/04/11 09:07:01;;;;;;;;;;;23.90;35.70;;;;;;1523914;77;798;-69
2022/04/11 09:09:02;;;;;;;;;;;23.90;35.40;;;;;;1523446;77;1427;-68
2022/04/11 09:11:04;;;;;;;;;;;24.00;35.60;;;;;;1524262;76;827;-68
2022/04/11 09:13:07;;;;;;;;;;;23.90;35.40;;;;;;1525056;77;888;-68
2022/04/11 09:15:09;;;;;;;;;;;23.90;35.40;;;;;;1536483;77;800;-68
2022/04/11 09:17:11;;;;;;;;;;;23.90;35.30;;;;;;1540369;77;707;-69
2022/04/11 09:19:20;;;;;;;;;;;23.90;35.30;;;;;;1539465;76;1181;-69
2022/04/11 09:21:28;;;;;;;;;;;23.90;35.40;;;;;;1539639;77;1920;-68
2022/04/11 09:23:26;;;;;;;;;;;23.90;35.40;;;;;;1519186;77;1631;-69
2022/04/11 09:25:31;;;;;;;;;;;23.90;35.20;;;;;;1509250;77;731;-68
2022/04/11 09:27:32;;;;;;;;;;;23.90;35.20;;;;;;1509997;77;695;-68
2022/04/11 09:29:34;;;;;;;;;;;23.90;35.20;;;;;;1527086;76;1156;-68
2022/04/11 09:31:36;;;;;;;;;;;23.90;35.20;;;;;;1548820;76;729;-70
2022/04/11 09:33:39;;;;;;;;;;;23.80;35.20;;;;;;1557450;76;804;-69
2022/04/11 09:35:41;;;;;;;;;;;23.90;35.10;;;;;;1547931;76;807;-69
2022/04/11 09:37:43;;;;;;;;;;;23.90;35.10;;;;;;1525624;76;797;-68
2022/04/11 09:39:45;;;;;;;;;;;23.80;34.90;;;;;;1535610;76;1110;-69
2022/04/11 09:41:47;;;;;;;;;;;23.80;35.00;;;;;;1525018;77;1943;-69
2022/04/11 09:43:49;;;;;;;;;;;23.70;35.00;;;;;;1531971;76;748;-68
2022/04/11 09:45:51;;;;;;;;;;;23.80;35.00;;;;;;1532386;76;802;-69
2022/04/11 09:48:00;;;;;;;;;;;23.80;34.70;;;;;;1538661;76;761;-69
2022/04/11 09:50:02;;;;;;;;;;;23.80;34.40;;;;;;1522862;77;1167;-69
2022/04/11 09:52:08;;;;;;;;;;;23.80;34.50;;;;;;1526730;76;813;-69
2022/04/11 09:54:25;;;;;;;;;;;23.70;34.50;;;;;;1549000;76;816;-69
2022/04/11 09:56:27;;;;;;;;;;;23.70;34.20;;;;;;1518345;77;779;-68
2022/04/11 09:58:29;;;;;;;;;;;23.70;34.40;;;;;;1516631;77;1145;-69
2022/04/11 10:00:32;;;;;;;;;;;23.70;34.30;;;;;;1510279;77;1949;-68
2022/04/11 10:02:34;;;;;;;;;;;23.70;34.30;;;;;;1530582;76;688;-69
2022/04/11 10:04:36;;;;;;;;;;;23.70;34.10;;;;;;1525461;76;677;-68
2022/04/11 10:06:38;;;;;;;;;;;23.70;34.30;;;;;;1557850;76;712;-68
2022/04/11 10:08:40;;;;;;;;;;;23.70;34.20;;;;;;1530641;76;1127;-68
2022/04/11 10:10:42;;;;;;;;;;;23.70;34.30;;;;;;1543956;76;561;-68
2022/04/11 10:12:43;;;;;;;;;;;23.60;34.10;;;;;;1530425;76;771;-68
2022/04/11 10:14:46;;;;;;;;;;;23.70;34.30;;;;;;1534413;76;649;-68
2022/04/11 10:16:47;;;;;;;;;;;23.60;34.20;;;;;;1520122;76;721;-68
2022/04/11 10:18:49;;;;;;;;;;;23.60;34.20;;;;;;1533622;76;1114;-69
2022/04/11 10:20:53;;;;;;;;;;;23.60;34.20;;;;;;1542078;76;1925;-69
2022/04/11 10:22:56;;;;;;;;;;;23.60;34.00;;;;;;1534886;76;1669;-68
2022/04/11 10:25:06;;;;;;;;;;;23.60;34.10;;;;;;1531326;76;709;-69
2022/04/11 10:27:22;;;;;;;;;;;23.50;34.00;;;;;;1541233;76;711;-69
2022/04/11 10:29:36;;;;;;;;;;;23.50;34.10;;;;;;1546868;76;1669;-69
2022/04/11 10:31:40;;;;;;;;;;;23.50;34.10;;;;;;1548630;76;802;-69
2022/04/11 10:33:51;;;;;;;;;;;23.50;34.00;;;;;;1535864;76;708;-69
2022/04/11 10:35:53;;;;;;;;;;;23.50;34.00;;;;;;1534768;77;710;-69
2022/04/11 10:37:59;;;;;;;;;;;23.50;33.90;;;;;;1535376;76;716;-69
2022/04/11 10:40:19;;;;;;;;;;;23.50;34.00;;;;;;1530865;76;1073;-69
2022/04/11 10:42:22;;;;;;;;;;;23.40;33.80;;;;;;1521246;76;1835;-69
2022/04/11 10:44:34;;;;;;;;;;;23.40;33.90;;;;;;1538091;76;674;-69
2022/04/11 10:46:47;;;;;;;;;;;23.40;33.90;;;;;;1531114;77;698;-68
2022/04/11 10:49:05;;;;;;;;;;;23.40;34.00;;;;;;1528630;76;1284;-70
2022/04/11 10:51:03;;;;;;;;;;;23.40;34.10;;;;;;1547584;76;1614;-69
2022/04/11 10:53:10;;;;;;;;;;;23.30;34.20;;;;;;1501854;79;1501;-68
2022/04/11 10:55:15;;;;;;;;;;;23.30;34.10;;;;;;1535201;76;745;-68
2022/04/11 10:57:19;;;;;;;;;;;23.30;34.00;;;;;;1516466;76;708;-68
2022/04/11 10:59:28;;;;;;;;;;;23.40;33.90;;;;;;1531199;76;1904;-67
2022/04/11 11:01:47;;;;;;;;;;;23.30;34.00;;;;;;1534064;76;1913;-68
2022/04/11 11:03:50;;;;;;;;;;;23.30;33.90;;;;;;1544460;76;773;-69
2022/04/11 11:05:52;;;;;;;;;;;23.30;34.00;;;;;;1539013;76;1049;-68
2022/04/11 11:08:14;;;;;;;;;;;23.30;33.90;;;;;;1539510;76;896;-68
2022/04/11 11:10:18;;;;;;;;;;;23.30;34.00;;;;;;1539435;76;684;-68
2022/04/11 11:12:20;;;;;;;;;;;23.30;33.90;;;;;;1531711;76;1844;-67
2022/04/11 11:14:41;;;;;;;;;;;23.30;33.90;;;;;;1535152;76;730;-68
2022/04/11 11:16:59;;;;;;;;;;;23.30;32.10;;;;;;1524098;76;679;-69
2022/04/11 11:19:03;;;;;;;;;;;23.20;33.20;;;;;;1534715;76;1137;-69
2022/04/11 11:21:05;;;;;;;;;;;23.10;33.30;;;;;;1534399;76;1931;-73
2022/04/11 11:23:13;;;;;;;;;;;23.10;33.00;;;;;;1538995;76;805;-66
2022/04/11 11:25:17;;;;;;;;;;;23.10;32.40;;;;;;1537459;76;695;-67
2022/04/11 11:27:18;;;;;;;;;;;23.10;32.70;;;;;;1535093;76;735;-67
2022/04/11 11:29:22;;;;;;;;;;;23.10;32.70;;;;;;1538805;76;1111;-68
2022/04/11 11:31:24;;;;;;;;;;;23.00;32.10;;;;;;1535086;76;712;-66
2022/04/11 11:33:26;;;;;;;;;;;22.90;31.10;;;;;;1541948;76;753;-66
2022/04/11 11:35:28;;;;;;;;;;;22.80;27.40;;;;;;1533319;76;777;-67
2022/04/11 11:37:30;;;;;;;;;;;22.60;30.20;;;;;;1537703;76;724;-67
2022/04/11 11:39:33;;;;;;;;;;;22.50;30.80;;;;;;1531467;76;1104;-65
2022/04/11 11:41:35;;;;;;;;;;;22.60;31.00;;;;;;1530198;76;1933;-67
2022/04/11 11:43:37;;;;;;;;;;;22.60;31.20;;;;;;1529697;76;686;-67
2022/04/11 11:45:41;;;;;;;;;;;22.50;31.40;;;;;;1537808;76;769;-66
2022/04/11 11:47:42;;;;;;;;;;;22.50;31.40;;;;;;1529106;77;721;-66
2022/04/11 11:49:45;;;;;;;;;;;22.50;31.50;;;;;;1532115;76;1139;-67
2022/04/11 11:51:47;;;;;;;;;;;22.50;31.40;;;;;;1531042;77;732;-67
2022/04/11 11:53:52;;;;;;;;;;;22.50;31.50;;;;;;1535865;76;800;-66
2022/04/11 11:55:55;;;;;;;;;;;22.40;31.40;;;;;;1536608;76;893;-67
2022/04/11 11:58:04;;;;;;;;;;;22.50;31.60;;;;;;1528647;76;871;-67
2022/04/11 12:00:07;;;;;;;;;;;22.50;31.70;;;;;;1517458;78;1093;-67
2022/04/11 12:04:32;;;;;;;;;;;22.40;31.50;;;;;;1519654;78;638;-67
2022/04/11 12:06:33;;;;;;;;;;;22.50;31.50;;;;;;1516984;78;788;-67
2022/04/11 12:08:35;;;;;;;;;;;22.40;31.50;;;;;;1518710;78;1135;-66
2022/04/11 12:10:37;;;;;;;;;;;22.50;31.50;;;;;;1519491;78;693;-67
2022/04/11 12:12:39;;;;;;;;;;;22.50;31.60;;;;;;1520612;78;820;-67
2022/04/11 12:15:01;;;;;;;;;;;22.30;31.50;;;;;;1519976;78;716;-67